Time;durP1;ratioP1;P1;durP2;ratioP2;P2;SDS_P1;SDS_P2;PMS_P1;PMS_P2;Temp;Humidity;BMP_temperature;BMP_pressure;BME280_temperature;BME280_humidity;BME280_pressure;Samples;Min_cycle;Max_cycle;Signal;HPM_P1;HPM_P2
2022/01/20 00:00:15;;;;;;;4.80;3.33;;;4.30;99.90;;;;;;4996254;28;20475;-82
2022/01/20 00:02:42;;;;;;;4.15;3.53;;;4.30;99.90;;;;;;5015016;28;20034;-81
2022/01/20 00:05:35;;;;;;;6.63;6.03;;;4.30;99.90;;;;;;5015529;28;20040;-81
2022/01/20 00:08:26;;;;;;;4.70;3.80;;;4.30;99.90;;;;;;5015680;28;20049;-80
2022/01/20 00:27:25;;;;;;;3.30;2.72;;;4.30;99.90;;;;;;5019845;28;20044;-81
2022/01/20 00:35:18;;;;;;;2.67;2.00;;;4.30;99.90;;;;;;5015134;28;20040;-82
2022/01/20 00:37:46;;;;;;;5.30;2.72;;;4.40;99.90;;;;;;4997245;28;20046;-81
2022/01/20 00:40:13;;;;;;;3.88;2.75;;;4.40;99.90;;;;;;5015447;28;20048;-81
2022/01/20 00:42:39;;;;;;;4.07;1.75;;;4.40;99.90;;;;;;5014163;28;20030;-83
2022/01/20 00:45:07;;;;;;;2.58;1.83;;;4.50;99.90;;;;;;5014868;28;20030;-83
2022/01/20 00:47:33;;;;;;;2.03;1.60;;;4.40;99.90;;;;;;4996878;28;20030;-82
2022/01/20 00:49:59;;;;;;;6.25;2.55;;;4.40;99.90;;;;;;5015008;28;20034;-81
2022/01/20 00:52:25;;;;;;;3.20;2.38;;;4.40;99.90;;;;;;5014259;28;20034;-82
2022/01/20 00:54:52;;;;;;;3.30;2.80;;;4.50;99.90;;;;;;5015122;28;20034;-82
2022/01/20 00:57:18;;;;;;;2.67;2.17;;;4.50;99.90;;;;;;5014146;28;20042;-82
2022/01/20 00:59:44;;;;;;;3.60;2.70;;;4.50;99.90;;;;;;4997648;28;20050;-82
2022/01/20 01:02:11;;;;;;;2.90;2.60;;;4.50;99.90;;;;;;4996584;28;20046;-80
2022/01/20 01:04:39;;;;;;;3.03;2.00;;;4.50;99.90;;;;;;5014048;28;20038;-80
2022/01/20 01:09:33;;;;;;;3.00;2.47;;;4.60;99.90;;;;;;4995993;28;20037;-84
2022/01/20 01:12:03;;;;;;;3.35;2.40;;;4.50;99.90;;;;;;4996834;28;20038;-83
2022/01/20 01:14:33;;;;;;;3.10;2.35;;;4.60;99.90;;;;;;4980012;28;20042;-83
2022/01/20 01:24:43;;;;;;;2.65;1.83;;;4.60;99.90;;;;;;4995707;28;20395;-83
2022/01/20 01:27:11;;;;;;;3.33;2.00;;;4.60;99.90;;;;;;5014646;28;20037;-84
2022/01/20 01:32:59;;;;;;;2.20;2.00;;;4.40;99.90;;;;;;5013644;28;20057;-83
2022/01/20 01:35:21;;;;;;;2.80;2.53;;;4.50;99.90;;;;;;4993171;28;20510;-85
2022/01/20 01:40:22;;;;;;;2.17;1.98;;;4.50;99.90;;;;;;5013851;28;20049;-84
2022/01/20 01:42:51;;;;;;;2.65;2.45;;;4.50;99.90;;;;;;4996120;28;20045;-83
2022/01/20 01:45:28;;;;;;;2.85;2.33;;;4.60;99.90;;;;;;4996828;28;20029;-84
2022/01/20 01:47:56;;;;;;;3.70;3.13;;;4.70;99.90;;;;;;4995828;28;20042;-84
2022/01/20 01:50:26;;;;;;;3.13;2.80;;;4.70;99.90;;;;;;4979491;28;20056;-84
2022/01/20 01:52:54;;;;;;;5.10;3.33;;;4.70;99.90;;;;;;5013623;28;20034;-80
2022/01/20 01:55:21;;;;;;;6.32;2.80;;;4.70;99.90;;;;;;4995955;28;20038;-84
2022/01/20 01:57:49;;;;;;;3.38;3.08;;;4.70;99.90;;;;;;4995307;28;20057;-84
2022/01/20 02:00:19;;;;;;;3.28;2.65;;;4.60;99.90;;;;;;4995335;28;20391;-83
2022/01/20 02:02:51;;;;;;;3.55;3.25;;;4.60;99.90;;;;;;4995707;28;20467;-83
2022/01/20 02:05:24;;;;;;;8.68;3.80;;;4.60;99.90;;;;;;4980183;28;20052;-81
2022/01/20 02:19:03;;;;;;;5.63;3.67;;;4.40;99.90;;;;;;4953593;28;20052;-84
2022/01/20 02:21:56;;;;;;;5.25;3.10;;;4.50;99.90;;;;;;4979484;28;20046;-84
2022/01/20 02:24:25;;;;;;;3.20;2.70;;;4.50;99.90;;;;;;4994870;28;20060;-83
2022/01/20 02:26:52;;;;;;;4.97;3.75;;;4.40;99.90;;;;;;4995834;28;20049;-83
2022/01/20 02:29:31;;;;;;;4.40;4.00;;;4.40;99.90;;;;;;4980335;28;20046;-83
2022/01/20 02:32:01;;;;;;;4.90;4.45;;;4.30;99.90;;;;;;4995355;28;20038;-83
2022/01/20 02:34:31;;;;;;;5.68;4.38;;;4.30;99.90;;;;;;4994344;28;20038;-82
2022/01/20 02:37:00;;;;;;;4.05;3.60;;;4.30;99.90;;;;;;4995020;28;20056;-83
2022/01/20 02:44:56;;;;;;;5.07;4.60;;;4.40;99.90;;;;;;4994562;28;20037;-84
2022/01/20 02:47:27;;;;;;;4.60;4.03;;;4.50;99.90;;;;;;4994937;28;20050;-85
2022/01/20 02:49:54;;;;;;;5.57;5.07;;;4.40;99.90;;;;;;4995650;28;20452;-83
2022/01/20 02:52:23;;;;;;;4.55;4.13;;;4.50;99.90;;;;;;4995672;28;20048;-84
2022/01/20 02:54:50;;;;;;;7.90;5.22;;;4.50;99.90;;;;;;4978093;28;20061;-84
2022/01/20 02:57:17;;;;;;;5.00;4.60;;;4.40;99.90;;;;;;4991252;28;20522;-85
2022/01/20 02:59:44;;;;;;;5.53;4.43;;;4.40;99.90;;;;;;4991532;28;20046;-84
2022/01/20 03:02:10;;;;;;;6.22;5.05;;;4.40;99.90;;;;;;4991988;28;20049;-84
2022/01/20 03:04:38;;;;;;;5.38;4.85;;;4.30;99.90;;;;;;4991173;28;20038;-83
2022/01/20 03:07:09;;;;;;;4.85;4.32;;;4.30;99.90;;;;;;4991515;28;20046;-82
2022/01/20 03:09:35;;;;;;;5.47;4.93;;;4.40;99.90;;;;;;4992059;28;20034;-82
2022/01/20 03:12:02;;;;;;;6.60;4.65;;;4.50;99.90;;;;;;4992844;28;20030;-81
2022/01/20 03:14:30;;;;;;;5.70;4.97;;;4.30;99.90;;;;;;4990567;28;20045;-81
2022/01/20 03:16:57;;;;;;;5.78;5.22;;;4.30;99.90;;;;;;4992825;28;20399;-82
2022/01/20 03:19:23;;;;;;;7.05;5.63;;;4.30;99.90;;;;;;4991913;28;20403;-82
2022/01/20 03:21:50;;;;;;;6.15;5.40;;;4.20;99.90;;;;;;4990707;28;20046;-82
2022/01/20 03:24:16;;;;;;;7.95;5.55;;;4.30;99.90;;;;;;4991519;28;20042;-83
2022/01/20 03:26:42;;;;;;;6.88;6.18;;;4.30;99.90;;;;;;4992215;28;20038;-84
2022/01/20 03:29:10;;;;;;;7.00;6.30;;;4.20;99.90;;;;;;4992246;28;20049;-84
2022/01/20 03:31:37;;;;;;;5.50;5.00;;;4.10;99.90;;;;;;4990803;28;20046;-83
2022/01/20 03:34:04;;;;;;;6.80;6.07;;;4.20;99.90;;;;;;4997725;28;20034;-83
2022/01/20 03:36:33;;;;;;;8.32;6.38;;;4.20;99.90;;;;;;4999865;28;20049;-82
2022/01/20 03:39:06;;;;;;;6.57;5.90;;;4.30;99.90;;;;;;4982908;28;20042;-82
2022/01/20 03:41:35;;;;;;;7.00;5.90;;;4.30;99.90;;;;;;4994886;28;20383;-83
2022/01/20 03:44:08;;;;;;;11.07;5.97;;;4.20;99.90;;;;;;4995384;28;20042;-83
2022/01/20 03:46:34;;;;;;;6.70;6.10;;;4.20;99.90;;;;;;4994365;28;20391;-83
2022/01/20 03:49:24;;;;;;;6.85;6.10;;;4.20;99.90;;;;;;4995370;28;20038;-83
2022/01/20 03:51:51;;;;;;;6.95;6.35;;;4.20;99.90;;;;;;4994390;28;20475;-83
2022/01/20 03:54:17;;;;;;;9.18;6.68;;;4.20;99.90;;;;;;4996012;28;20042;-83
2022/01/20 03:57:16;;;;;;;6.72;6.03;;;4.10;99.90;;;;;;4993942;28;20410;-83
2022/01/20 04:00:07;;;;;;;9.95;7.38;;;4.00;99.90;;;;;;4991697;28;20480;-83
2022/01/20 04:02:41;;;;;;;6.90;6.30;;;4.10;99.90;;;;;;4999979;28;20045;-82
2022/01/20 04:05:25;;;;;;;12.30;7.05;;;4.10;99.90;;;;;;4993859;28;20503;-83
2022/01/20 04:08:08;;;;;;;7.68;7.00;;;4.10;99.90;;;;;;4993731;28;20042;-82
2022/01/20 04:10:34;;;;;;;11.43;7.43;;;4.10;99.90;;;;;;4994463;28;20042;-82
2022/01/20 04:13:00;;;;;;;10.15;7.97;;;4.00;99.90;;;;;;4993766;28;20033;-83
2022/01/20 04:15:36;;;;;;;9.32;7.95;;;4.00;99.90;;;;;;4993757;28;20038;-83
2022/01/20 04:18:04;;;;;;;8.15;7.40;;;4.10;99.90;;;;;;4993891;28;20046;-83
2022/01/20 04:20:30;;;;;;;9.02;8.18;;;4.10;99.90;;;;;;4993566;28;20484;-82
2022/01/20 04:22:57;;;;;;;8.80;7.70;;;4.10;99.90;;;;;;4994449;28;20026;-82
2022/01/20 04:25:23;;;;;;;9.60;7.50;;;4.00;99.90;;;;;;4993819;28;20042;-83
2022/01/20 04:27:49;;;;;;;8.98;8.07;;;3.90;99.90;;;;;;4998977;28;20059;-82
2022/01/20 04:30:15;;;;;;;11.00;9.73;;;3.80;99.90;;;;;;5004121;28;20034;-83
2022/01/20 04:32:42;;;;;;;12.13;9.38;;;3.70;99.90;;;;;;5002145;28;20408;-83
2022/01/20 04:35:08;;;;;;;8.88;7.85;;;3.70;99.90;;;;;;4993248;28;20373;-83
2022/01/20 04:37:35;;;;;;;10.60;9.50;;;3.60;99.90;;;;;;4992798;28;20042;-83
2022/01/20 04:40:04;;;;;;;15.18;9.30;;;3.50;99.90;;;;;;4993360;28;20042;-83
2022/01/20 04:42:35;;;;;;;10.68;8.95;;;3.40;99.90;;;;;;4992833;28;20396;-83
2022/01/20 04:45:07;;;;;;;10.30;9.30;;;3.40;99.90;;;;;;4992784;28;20049;-83
2022/01/20 04:58:35;;;;;;;20.95;9.30;;;3.60;99.90;;;;;;5150950;27;20115;-84
2022/01/20 05:01:03;;;;;;;62.08;44.42;;;3.60;99.90;;;;;;5130852;28;20034;-83
2022/01/20 05:03:56;;;;;;;18.88;11.23;;;3.60;99.90;;;;;;5129381;28;20114;-84
2022/01/20 05:06:58;;;;;;;30.55;25.92;;;3.50;99.90;;;;;;5120642;28;20048;-82
2022/01/20 05:09:25;;;;;;;48.65;44.42;;;3.40;99.90;;;;;;5112609;28;20046;-82
2022/01/20 05:12:05;;;;;;;13.40;11.90;;;3.40;99.90;;;;;;5093736;28;20373;-82
2022/01/20 05:14:33;;;;;;;20.38;9.82;;;3.30;99.90;;;;;;5112157;28;20044;-83
2022/01/20 05:17:00;;;;;;;19.77;8.13;;;3.40;99.90;;;;;;5129564;28;20036;-84
2022/01/20 05:19:28;;;;;;;16.45;7.15;;;3.30;99.90;;;;;;5110976;28;20043;-84
2022/01/20 05:21:56;;;;;;;11.02;9.05;;;3.30;99.90;;;;;;5110353;28;20035;-83
2022/01/20 05:24:28;;;;;;;15.25;8.07;;;3.20;99.90;;;;;;5095291;28;20032;-84
2022/01/20 05:26:57;;;;;;;9.00;8.10;;;3.20;99.90;;;;;;5109905;28;20047;-85
2022/01/20 05:29:25;;;;;;;21.42;8.85;;;3.10;99.90;;;;;;5111171;28;20051;-84
2022/01/20 05:31:52;;;;;;;7.97;7.18;;;3.00;99.90;;;;;;5109967;28;20039;-84
2022/01/20 05:34:18;;;;;;;10.82;8.98;;;2.80;99.90;;;;;;5111281;28;20035;-84
2022/01/20 05:36:49;;;;;;;10.52;6.95;;;2.70;99.90;;;;;;5093184;28;20048;-84
2022/01/20 05:39:17;;;;;;;10.52;8.50;;;2.80;99.90;;;;;;5110696;28;20046;-86
2022/01/20 05:41:43;;;;;;;9.25;7.28;;;2.70;99.90;;;;;;5092881;28;20032;-84
2022/01/20 05:44:21;;;;;;;8.45;6.53;;;2.50;99.90;;;;;;5096094;28;20042;-84
2022/01/20 05:46:52;;;;;;;16.80;9.02;;;2.40;99.90;;;;;;5093874;28;20056;-84
2022/01/20 05:49:42;;;;;;;;;;;2.30;99.90;;;;;;5088112;28;20031;-83
2022/01/20 05:52:10;;;;;;;13.88;9.82;;;2.10;99.90;;;;;;5110707;28;19907;-83
2022/01/20 05:54:37;;;;;;;13.02;8.40;;;2.10;99.90;;;;;;5093470;28;20142;-83
2022/01/20 05:57:03;;;;;;;14.77;9.07;;;2.10;99.90;;;;;;5109941;28;20058;-82
2022/01/20 05:59:34;;;;;;;12.65;9.75;;;2.00;99.90;;;;;;5094884;28;20053;-83
2022/01/20 06:02:09;;;;;;;16.58;10.73;;;2.10;99.90;;;;;;5109995;28;20432;-83
2022/01/20 06:04:35;;;;;;;18.85;10.82;;;2.10;99.90;;;;;;5110932;28;20504;-84
2022/01/20 06:07:02;;;;;;;13.40;11.13;;;2.20;99.90;;;;;;5109852;28;20376;-83
2022/01/20 06:09:29;;;;;;;17.05;11.00;;;2.30;99.90;;;;;;5118567;28;20368;-84
2022/01/20 06:11:55;;;;;;;11.57;10.38;;;2.30;99.90;;;;;;5095965;28;20073;-83
2022/01/20 06:14:23;;;;;;;13.02;9.65;;;2.40;99.90;;;;;;5097188;28;20047;-84
2022/01/20 06:16:50;;;;;;;20.25;9.45;;;2.50;99.90;;;;;;5114830;28;20047;-84
2022/01/20 06:19:16;;;;;;;16.52;9.05;;;2.80;99.90;;;;;;5115897;28;20400;-84
2022/01/20 06:21:45;;;;;;;11.45;6.90;;;3.20;99.90;;;;;;5097325;28;20362;-84
2022/01/20 06:24:11;;;;;;;9.20;5.18;;;3.50;99.90;;;;;;5079613;28;20036;-84
2022/01/20 06:26:38;;;;;;;7.35;4.55;;;3.60;99.90;;;;;;5096810;28;20051;-83
2022/01/20 06:29:04;;;;;;;25.58;5.38;;;3.70;99.90;;;;;;5097549;28;20035;-84
2022/01/20 06:31:32;;;;;;;8.65;4.53;;;3.60;99.90;;;;;;5097906;28;20031;-83
2022/01/20 06:33:58;;;;;;;14.80;5.10;;;3.70;99.90;;;;;;5080053;28;20224;-86
2022/01/20 06:36:24;;;;;;;19.65;5.40;;;3.80;99.90;;;;;;5096836;28;20047;-85
2022/01/20 06:38:51;;;;;;;6.10;3.92;;;4.00;99.90;;;;;;5095710;28;20035;-85
2022/01/20 06:41:17;;;;;;;10.45;4.85;;;4.10;99.90;;;;;;5115084;28;20027;-83
2022/01/20 06:43:44;;;;;;;9.60;4.68;;;4.10;99.90;;;;;;5095248;28;20031;-85
2022/01/20 06:46:11;;;;;;;12.73;4.35;;;4.10;99.90;;;;;;5100436;28;20043;-85
2022/01/20 06:48:58;;;;;;;8.85;4.03;;;4.00;99.90;;;;;;5082216;28;20039;-83
2022/01/20 06:51:32;;;;;;;10.05;4.00;;;4.10;99.90;;;;;;5114035;28;20032;-84
2022/01/20 06:53:59;;;;;;;13.43;3.95;;;4.10;99.90;;;;;;5094492;28;20040;-83
2022/01/20 06:56:26;;;;;;;11.82;4.03;;;4.10;99.90;;;;;;5078748;28;20050;-83
2022/01/20 06:58:53;;;;;;;7.57;4.07;;;4.00;99.90;;;;;;5096113;28;20040;-83
2022/01/20 07:01:20;;;;;;;8.38;3.78;;;3.90;99.90;;;;;;5095821;28;20051;-82
2022/01/20 07:03:48;;;;;;;7.03;3.95;;;3.90;99.90;;;;;;5078963;28;20051;-83
2022/01/20 07:06:15;;;;;;;9.20;3.92;;;3.90;99.90;;;;;;5096954;28;20043;-82
2022/01/20 07:09:01;;;;;;;10.10;3.90;;;3.90;99.90;;;;;;5113423;28;20135;-83
2022/01/20 07:11:28;;;;;;;11.55;3.63;;;3.80;99.90;;;;;;5095575;28;20043;-83
2022/01/20 07:13:54;;;;;;;13.38;4.18;;;3.70;99.90;;;;;;5094722;28;20146;-90
2022/01/20 07:16:20;;;;;;;7.60;4.63;;;3.70;99.90;;;;;;5079013;28;20031;-81
2022/01/20 07:18:47;;;;;;;8.00;4.05;;;3.60;99.90;;;;;;5095001;28;20047;-82
2022/01/20 07:21:13;;;;;;;7.93;3.47;;;3.60;99.90;;;;;;5094499;28;20043;-83
2022/01/20 07:23:49;;;;;;;15.27;4.00;;;3.60;99.90;;;;;;5095235;28;20113;-81
2022/01/20 07:26:16;;;;;;;6.07;3.60;;;3.40;99.90;;;;;;5096050;28;20043;-80
2022/01/20 07:28:50;;;;;;;11.05;5.10;;;3.70;99.90;;;;;;5095563;28;20050;-80
2022/01/20 07:31:20;;;;;;;7.03;3.63;;;3.70;99.90;;;;;;5095369;28;20503;-81
2022/01/20 07:33:47;;;;;;;9.13;4.40;;;3.70;99.90;;;;;;5094824;28;20054;-80
2022/01/20 07:36:13;;;;;;;11.60;5.18;;;3.60;99.90;;;;;;5095438;28;20047;-81
2022/01/20 07:38:42;;;;;;;14.40;4.63;;;3.60;99.90;;;;;;5095772;28;20043;-85
2022/01/20 07:41:08;;;;;;;21.50;4.57;;;3.80;99.90;;;;;;5096471;28;20046;-82
2022/01/20 07:43:35;;;;;;;9.82;3.35;;;3.90;99.90;;;;;;5101782;28;20039;-81
2022/01/20 07:46:18;;;;;;;10.30;3.88;;;3.90;99.90;;;;;;5098367;28;20043;-80
2022/01/20 07:48:53;;;;;;;21.00;14.75;;;3.90;99.90;;;;;;5096534;28;20044;-81
2022/01/20 07:51:19;;;;;;;23.67;7.47;;;3.80;99.90;;;;;;5095901;28;20043;-80
2022/01/20 07:53:46;;;;;;;11.13;4.18;;;3.70;99.90;;;;;;5095965;28;20040;-80
2022/01/20 07:56:13;;;;;;;21.17;10.80;;;3.80;99.90;;;;;;5099427;28;20043;-82
2022/01/20 07:58:41;;;;;;;7.45;3.20;;;3.80;99.90;;;;;;5117249;28;20051;-78
2022/01/20 08:01:07;;;;;;;20.98;4.10;;;3.80;99.90;;;;;;5096180;28;20039;-81
2022/01/20 08:03:41;;;;;;;7.55;3.22;;;3.90;99.90;;;;;;5096222;28;20031;-80
2022/01/20 08:06:10;;;;;;;8.90;5.47;;;3.90;99.90;;;;;;5095195;28;20040;-80
2022/01/20 08:08:40;;;;;;;9.55;3.35;;;3.90;99.90;;;;;;5095358;28;20040;-79
2022/01/20 08:11:25;;;;;;;15.40;6.85;;;3.90;99.90;;;;;;5114095;28;20039;-79
2022/01/20 08:14:00;;;;;;;12.30;3.88;;;3.90;99.90;;;;;;5094575;28;20039;-81
2022/01/20 08:16:27;;;;;;;11.07;3.75;;;3.90;99.90;;;;;;5095102;28;20039;-80
2022/01/20 08:18:54;;;;;;;8.45;3.63;;;4.00;99.90;;;;;;5094561;28;20047;-80
2022/01/20 08:21:21;;;;;;;8.93;3.22;;;4.00;99.90;;;;;;5094748;28;20062;-80
2022/01/20 08:23:48;;;;;;;5.85;3.53;;;4.00;99.90;;;;;;5094474;28;20040;-80
2022/01/20 08:26:14;;;;;;;9.95;3.38;;;4.10;99.90;;;;;;5094566;28;20050;-80
2022/01/20 08:28:42;;;;;;;9.25;4.05;;;4.40;99.90;;;;;;5094357;28;20476;-80
2022/01/20 08:31:09;;;;;;;6.05;3.97;;;4.40;99.90;;;;;;5094045;28;20051;-80
2022/01/20 08:33:35;;;;;;;8.88;4.10;;;4.30;99.70;;;;;;5094994;28;20035;-80
2022/01/20 08:36:09;;;;;;;5.20;3.25;;;4.30;99.70;;;;;;5094694;28;20476;-79
2022/01/20 08:38:54;;;;;;;7.40;3.80;;;4.40;99.40;;;;;;5094113;28;20484;-80
2022/01/20 08:41:21;;;;;;;10.43;4.60;;;4.40;98.90;;;;;;5094460;28;20388;-80
2022/01/20 08:43:47;;;;;;;14.43;5.45;;;4.40;99.10;;;;;;5094176;28;20043;-81
2022/01/20 08:46:19;;;;;;;6.53;3.70;;;4.30;99.30;;;;;;5094658;28;20039;-79
2022/01/20 08:48:45;;;;;;;7.40;3.65;;;4.30;99.10;;;;;;5094738;28;20048;-79
2022/01/20 08:51:21;;;;;;;17.60;4.20;;;4.30;99.20;;;;;;5113319;28;20028;-80
2022/01/20 08:54:07;;;;;;;10.60;4.18;;;4.30;99.60;;;;;;5094789;28;20074;-79
2022/01/20 08:56:34;;;;;;;9.02;3.33;;;4.30;99.00;;;;;;5093645;28;20062;-79
2022/01/20 08:59:05;;;;;;;13.05;4.70;;;4.30;99.10;;;;;;5112610;28;20043;-79
2022/01/20 09:01:38;;;;;;;11.93;4.40;;;4.30;99.10;;;;;;5094348;28;20051;-79
2022/01/20 09:04:05;;;;;;;9.60;4.03;;;4.40;99.10;;;;;;5112396;28;20031;-80
2022/01/20 09:06:34;;;;;;;6.50;3.75;;;4.60;98.50;;;;;;5094430;28;20061;-79
2022/01/20 09:09:19;;;;;;;5.00;3.80;;;4.80;97.30;;;;;;5094366;28;20035;-79
2022/01/20 09:12:17;;;;;;;8.52;3.35;;;4.90;97.80;;;;;;5077351;28;20221;-79
2022/01/20 09:17:31;;;;;;;9.32;3.33;;;5.10;96.30;;;;;;5093954;28;20058;-79
2022/01/20 09:19:58;;;;;;;4.60;2.30;;;5.10;95.90;;;;;;5093946;28;20039;-79
2022/01/20 09:22:27;;;;;;;12.57;2.50;;;5.10;96.40;;;;;;5094079;28;20039;-79
2022/01/20 09:24:53;;;;;;;5.90;2.67;;;5.10;95.30;;;;;;5093398;28;20040;-79
2022/01/20 09:27:20;;;;;;;4.70;2.63;;;5.00;95.70;;;;;;5093783;28;20377;-80
2022/01/20 09:29:46;;;;;;;8.32;2.92;;;4.90;96.10;;;;;;5094922;28;20036;-80
2022/01/20 09:32:16;;;;;;;13.98;2.78;;;5.00;96.40;;;;;;5093800;28;20490;-80
2022/01/20 09:34:43;;;;;;;5.15;1.63;;;5.20;96.40;;;;;;5094382;28;20034;-81
2022/01/20 09:37:11;;;;;;;5.15;2.38;;;5.30;94.70;;;;;;5093549;28;20035;-82
2022/01/20 09:39:43;;;;;;;6.53;2.35;;;5.40;93.80;;;;;;5094256;28;20051;-80
2022/01/20 09:42:18;;;;;;;5.68;2.83;;;5.50;93.90;;;;;;5094001;28;20149;-80
2022/01/20 09:44:46;;;;;;;5.50;2.03;;;5.90;93.50;;;;;;5096717;28;20088;-81
2022/01/20 09:47:16;;;;;;;3.92;1.80;;;6.10;92.90;;;;;;5097593;28;20036;-80
2022/01/20 09:50:05;;;;;;;3.72;2.00;;;5.90;91.80;;;;;;5115483;28;20396;-80
2022/01/20 09:52:39;;;;;;;5.15;1.80;;;5.50;92.20;;;;;;5082246;28;20468;-79
2022/01/20 09:55:35;;;;;;;6.65;1.15;;;5.30;92.40;;;;;;5098254;28;20380;-79
2022/01/20 09:58:04;;;;;;;2.15;1.17;;;5.10;91.70;;;;;;5096646;28;20484;-81
2022/01/20 10:00:30;;;;;;;2.65;1.25;;;5.00;91.70;;;;;;5097770;28;20055;-79
2022/01/20 10:03:01;;;;;;;3.63;1.05;;;5.00;91.50;;;;;;5097174;28;20479;-81
2022/01/20 10:05:42;;;;;;;9.30;1.88;;;5.00;91.50;;;;;;5097566;28;20048;-80
2022/01/20 10:08:14;;;;;;;6.45;4.15;;;4.90;91.30;;;;;;5080482;28;20047;-80
2022/01/20 10:11:06;;;;;;;4.05;1.30;;;5.00;91.60;;;;;;5081983;28;20047;-81
2022/01/20 10:13:56;;;;;;;4.13;1.27;;;5.00;91.90;;;;;;5099776;28;20032;-81
2022/01/20 10:16:49;;;;;;;3.65;1.33;;;4.90;91.60;;;;;;5099418;28;20476;-79
2022/01/20 10:19:27;;;;;;;2.20;0.93;;;5.00;91.00;;;;;;5097095;28;20051;-81
2022/01/20 10:21:53;;;;;;;5.30;1.80;;;5.10;90.70;;;;;;5096800;28;20051;-81
2022/01/20 10:24:38;;;;;;;3.22;1.25;;;5.10;90.80;;;;;;5115649;28;20358;-81
2022/01/20 10:27:13;;;;;;;15.73;1.85;;;5.10;90.90;;;;;;5114993;28;20472;-81
2022/01/20 10:30:07;;;;;;;5.05;2.45;;;5.00;90.70;;;;;;5097108;28;20040;-79
2022/01/20 10:32:42;;;;;;;2.80;1.33;;;5.00;90.60;;;;;;5096622;28;20079;-80
2022/01/20 10:35:10;;;;;;;4.38;1.85;;;5.00;90.80;;;;;;5095996;28;20046;-80
2022/01/20 10:37:52;;;;;;;6.57;2.60;;;5.10;90.80;;;;;;5096368;28;20052;-79
2022/01/20 10:40:22;;;;;;;10.88;1.88;;;5.00;90.80;;;;;;5096422;28;20043;-84
2022/01/20 10:42:54;;;;;;;4.43;1.85;;;5.00;91.30;;;;;;5095937;28;20039;-86
2022/01/20 10:45:29;;;;;;;18.83;2.60;;;5.10;91.30;;;;;;5079723;28;20078;-83
2022/01/20 10:47:58;;;;;;;6.82;2.03;;;5.10;91.20;;;;;;5095995;28;20054;-79
2022/01/20 10:50:27;;;;;;;4.97;2.22;;;5.10;90.40;;;;;;5115093;28;20027;-80
2022/01/20 10:52:59;;;;;;;4.25;1.90;;;5.10;89.40;;;;;;5095983;28;20040;-80
2022/01/20 10:55:35;;;;;;;15.23;2.60;;;5.10;89.60;;;;;;5096302;28;20401;-81
2022/01/20 10:58:15;;;;;;;13.02;3.08;;;5.30;89.50;;;;;;5095104;28;20047;-78
2022/01/20 11:00:48;;;;;;;4.78;1.73;;;5.20;88.90;;;;;;5079912;28;20050;-80
2022/01/20 11:03:16;;;;;;;10.02;1.88;;;5.20;88.90;;;;;;5095989;28;20051;-80
2022/01/20 11:05:48;;;;;;;4.15;1.45;;;5.20;88.20;;;;;;5096109;28;20039;-80
2022/01/20 11:08:18;;;;;;;5.88;2.83;;;5.10;88.20;;;;;;5095575;28;20399;-80
2022/01/20 11:10:45;;;;;;;4.95;2.25;;;5.00;88.70;;;;;;5096242;28;20035;-80
2022/01/20 11:13:48;;;;;;;11.23;2.70;;;5.10;89.10;;;;;;5078370;28;20035;-81
2022/01/20 11:16:14;;;;;;;4.20;1.77;;;5.10;89.30;;;;;;5095041;28;20036;-79
2022/01/20 11:18:42;;;;;;;11.85;2.38;;;5.10;89.50;;;;;;5095512;28;20040;-79
2022/01/20 11:21:08;;;;;;;6.07;2.55;;;5.00;88.10;;;;;;5078454;28;20408;-81
2022/01/20 11:23:41;;;;;;;7.63;2.67;;;5.00;89.60;;;;;;5080212;28;20047;-79
2022/01/20 11:26:26;;;;;;;6.93;2.30;;;5.00;89.30;;;;;;5115503;28;20358;-78
2022/01/20 11:29:12;;;;;;;9.38;5.13;;;5.00;88.40;;;;;;5115307;28;20035;-80
2022/01/20 11:31:58;;;;;;;6.78;2.33;;;5.00;87.90;;;;;;5095373;28;20460;-80
2022/01/20 11:34:35;;;;;;;8.52;2.30;;;5.10;86.80;;;;;;5095509;28;20039;-80
2022/01/20 11:37:09;;;;;;;6.20;2.28;;;5.20;87.70;;;;;;5113340;28;20036;-79
2022/01/20 11:39:35;;;;;;;7.55;2.22;;;5.20;88.00;;;;;;5095622;28;20043;-79
2022/01/20 11:42:02;;;;;;;3.88;2.17;;;5.20;89.10;;;;;;5113886;28;20024;-78
2022/01/20 11:44:31;;;;;;;11.93;8.68;;;5.20;88.00;;;;;;5094991;28;20477;-79
2022/01/20 11:47:06;;;;;;;4.70;2.88;;;5.20;84.80;;;;;;5095394;28;20039;-82
2022/01/20 11:49:38;;;;;;;4.45;1.95;;;5.40;84.60;;;;;;5113774;28;20039;-79
2022/01/20 11:52:04;;;;;;;7.70;1.63;;;5.70;82.20;;;;;;5094855;28;20392;-80
2022/01/20 11:54:34;;;;;;;6.10;1.90;;;5.90;79.70;;;;;;5113643;28;20039;-79
2022/01/20 11:57:11;;;;;;;7.80;2.17;;;6.10;79.90;;;;;;5112951;28;20047;-78
2022/01/20 11:59:48;;;;;;;3.22;2.20;;;6.00;79.60;;;;;;5095728;28;20036;-82
2022/01/20 12:02:26;;;;;;;5.18;1.98;;;5.80;79.40;;;;;;5112871;28;20027;-79
2022/01/20 12:04:56;;;;;;;11.27;2.72;;;5.70;79.40;;;;;;5095174;28;20380;-80
2022/01/20 12:07:33;;;;;;;5.85;2.20;;;5.50;80.00;;;;;;5094357;28;20428;-80
2022/01/20 12:10:06;;;;;;;5.63;2.25;;;5.40;80.90;;;;;;5094613;28;20038;-80
2022/01/20 12:12:32;;;;;;;5.80;2.10;;;5.40;81.20;;;;;;5113840;28;20054;-79
2022/01/20 12:15:09;;;;;;;7.22;1.60;;;5.40;81.50;;;;;;5113003;28;20041;-89
2022/01/20 12:17:37;;;;;;;10.40;2.60;;;5.40;80.90;;;;;;5116164;28;20035;-79
2022/01/20 12:20:04;;;;;;;7.05;2.47;;;5.30;81.50;;;;;;5117021;28;20388;-79
2022/01/20 12:22:31;;;;;;;9.40;1.95;;;5.20;80.40;;;;;;5114498;28;20031;-78
2022/01/20 12:24:58;;;;;;;8.27;2.72;;;5.20;81.60;;;;;;5113637;28;20028;-79
2022/01/20 12:27:25;;;;;;;9.65;2.10;;;5.10;80.90;;;;;;5112209;28;20058;-79
2022/01/20 12:29:52;;;;;;;10.57;2.30;;;5.10;80.90;;;;;;5112982;28;20031;-80
2022/01/20 12:32:20;;;;;;;3.50;1.75;;;5.00;79.70;;;;;;5112366;28;20046;-80
2022/01/20 12:35:01;;;;;;;4.03;1.75;;;5.10;80.10;;;;;;5113016;28;20032;-79
2022/01/20 12:37:39;;;;;;;5.25;2.50;;;5.10;79.10;;;;;;5113310;28;20488;-79
2022/01/20 12:40:20;;;;;;;9.43;5.95;;;5.10;78.00;;;;;;5094463;28;20362;-80
2022/01/20 12:42:47;;;;;;;3.60;2.20;;;5.00;77.60;;;;;;5113062;28;20043;-79
2022/01/20 12:48:17;;;;;;;5.95;2.00;;;4.80;74.60;;;;;;5111582;28;20052;-78
2022/01/20 12:50:55;;;;;;;10.17;2.77;;;4.70;74.30;;;;;;5113306;28;20032;-80
2022/01/20 12:53:33;;;;;;;4.93;1.83;;;4.70;74.70;;;;;;5112389;28;20039;-78
2022/01/20 12:55:59;;;;;;;5.28;2.00;;;4.70;74.70;;;;;;5112545;28;20028;-80
2022/01/20 12:58:25;;;;;;;6.03;1.60;;;4.70;76.30;;;;;;5112286;28;20048;-80
2022/01/20 13:01:18;;;;;;;3.70;1.30;;;4.70;75.80;;;;;;5112565;28;20380;-80
2022/01/20 13:03:45;;;;;;;10.35;1.77;;;4.60;76.50;;;;;;5108652;28;20042;-81
2022/01/20 13:06:23;;;;;;;11.40;2.67;;;4.70;77.30;;;;;;5112353;28;20031;-81
2022/01/20 13:09:07;;;;;;;7.47;2.15;;;4.70;77.50;;;;;;5112538;28;20036;-81
2022/01/20 13:11:45;;;;;;;6.47;2.25;;;4.70;77.50;;;;;;5112842;28;20036;-81
2022/01/20 13:14:12;;;;;;;6.43;1.65;;;4.80;78.40;;;;;;5112374;28;20046;-80
2022/01/20 13:16:53;;;;;;;5.28;1.65;;;4.80;78.10;;;;;;5112697;28;20032;-79
2022/01/20 13:19:30;;;;;;;4.53;1.88;;;4.80;77.90;;;;;;5114075;28;20047;-80
2022/01/20 13:21:56;;;;;;;2.58;1.80;;;4.90;77.60;;;;;;5117116;28;20376;-79
2022/01/20 13:24:31;;;;;;;5.75;2.15;;;4.90;78.00;;;;;;5116359;28;20046;-81
2022/01/20 13:26:58;;;;;;;8.10;2.03;;;4.90;77.90;;;;;;5116583;28;20487;-80
2022/01/20 13:29:37;;;;;;;6.15;2.03;;;4.90;76.90;;;;;;5097840;28;20526;-80
2022/01/20 13:32:03;;;;;;;10.77;2.90;;;4.90;75.60;;;;;;5115844;28;20032;-87
2022/01/20 13:34:29;;;;;;;6.07;2.13;;;4.90;75.40;;;;;;5116448;28;20031;-80
2022/01/20 13:36:56;;;;;;;7.70;2.20;;;4.90;74.70;;;;;;5116286;28;20031;-80
2022/01/20 13:39:37;;;;;;;3.92;1.83;;;4.80;75.30;;;;;;5115923;28;20051;-80
2022/01/20 13:42:10;;;;;;;8.70;3.08;;;4.70;75.00;;;;;;5116062;28;20028;-90
2022/01/20 13:47:21;;;;;;;8.68;2.60;;;4.60;76.30;;;;;;5115723;28;20039;-80
2022/01/20 13:49:51;;;;;;;7.57;2.33;;;4.80;76.60;;;;;;5114850;28;20039;-81
2022/01/20 13:52:18;;;;;;;7.15;2.05;;;5.10;75.60;;;;;;5115523;28;20031;-81
2022/01/20 13:54:50;;;;;;;5.15;1.73;;;5.40;74.50;;;;;;5115901;28;20374;-80
2022/01/20 13:57:17;;;;;;;7.07;2.22;;;5.40;73.60;;;;;;5096412;28;20047;-80
2022/01/20 13:59:53;;;;;;;4.80;1.30;;;5.30;73.70;;;;;;5115880;28;20384;-82
2022/01/20 14:02:25;;;;;;;3.20;0.95;;;5.00;75.40;;;;;;5096525;28;20039;-84
2022/01/20 14:04:52;;;;;;;1.98;0.90;;;3.70;83.90;;;;;;5115694;28;20028;-80
2022/01/20 14:07:20;;;;;;;2.03;0.90;;;3.20;89.40;;;;;;5115588;28;20035;-81
2022/01/20 14:09:49;;;;;;;2.78;0.75;;;2.80;92.50;;;;;;5097657;28;20388;-81
2022/01/20 14:12:16;;;;;;;0.50;0.30;;;2.60;94.60;;;;;;5115210;28;20023;-81
2022/01/20 14:14:42;;;;;;;1.90;0.63;;;2.50;95.30;;;;;;5115602;28;20475;-82
2022/01/20 14:17:19;;;;;;;2.42;0.95;;;2.40;96.20;;;;;;5115213;28;20038;-83
2022/01/20 14:19:53;;;;;;;2.22;1.05;;;2.60;97.30;;;;;;5096738;28;20055;-81
2022/01/20 14:22:19;;;;;;;2.17;0.80;;;2.70;96.90;;;;;;5115357;28;20042;-82
2022/01/20 14:24:45;;;;;;;4.28;0.85;;;2.80;95.00;;;;;;5115810;28;20031;-82
2022/01/20 14:27:15;;;;;;;7.95;1.42;;;2.80;95.40;;;;;;5114582;28;20040;-82